createdAt,value
2022-09-13T00:00:34.116Z,99.853516
2022-09-13T00:01:42.948Z,99.749756
2022-09-13T00:02:52.625Z,99.853516
2022-09-13T00:04:00.288Z,99.853516
2022-09-13T00:05:07.967Z,99.853516
2022-09-13T00:06:17.650Z,99.951172
2022-09-13T00:07:26.375Z,99.951172
2022-09-13T00:08:36.076Z,99.951172
2022-09-13T00:09:45.754Z,99.993896
2022-09-13T00:10:53.448Z,99.993896
2022-09-13T00:12:03.152Z,99.993896
2022-09-13T00:13:11.883Z,99.993896
2022-09-13T00:14:20.674Z,99.993896
2022-09-13T00:15:29.268Z,99.993896
2022-09-13T00:16:38.974Z,99.993896
2022-09-13T00:17:47.624Z,99.993896
2022-09-13T00:18:56.348Z,99.993896
2022-09-13T00:20:06.052Z,99.993896
2022-09-13T00:21:15.729Z,99.993896
2022-09-13T00:22:23.405Z,99.993896
2022-09-13T00:23:32.123Z,99.993896
2022-09-13T00:24:41.813Z,99.993896
2022-09-13T00:25:50.466Z,99.993896
2022-09-13T00:27:00.156Z,99.993896
2022-09-13T00:28:09.872Z,99.993896
2022-09-13T00:29:18.551Z,99.993896
2022-09-13T00:30:28.282Z,99.993896
2022-09-13T00:31:36.984Z,99.993896
2022-09-13T00:32:45.638Z,99.993896
2022-09-13T00:33:55.380Z,99.993896
2022-09-13T00:35:05.049Z,99.993896
2022-09-13T00:36:13.793Z,99.993896
2022-09-13T00:37:23.474Z,99.993896
2022-09-13T00:38:33.149Z,99.993896
2022-09-13T00:39:44.940Z,99.993896
2022-09-13T00:40:53.522Z,99.993896
2022-09-13T00:42:01.243Z,99.993896
2022-09-13T00:43:10.945Z,99.993896
2022-09-13T00:44:19.625Z,99.993896
2022-09-13T00:45:28.340Z,99.993896
2022-09-13T00:46:37.074Z,99.993896
2022-09-13T00:47:45.786Z,99.993896
2022-09-13T00:48:55.495Z,99.993896
2022-09-13T00:50:03.192Z,99.993896
2022-09-13T00:51:10.866Z,99.993896
2022-09-13T00:52:20.540Z,99.993896
2022-09-13T00:53:30.254Z,99.993896
2022-09-13T00:54:38.948Z,99.993896
2022-09-13T00:55:47.622Z,99.993896
2022-09-13T00:56:57.313Z,99.993896
2022-09-13T00:58:06.992Z,99.993896
2022-09-13T00:59:15.721Z,99.993896
2022-09-13T01:00:25.425Z,99.993896
2022-09-13T01:01:33.110Z,99.993896
2022-09-13T01:02:41.780Z,99.993896
2022-09-13T01:03:51.449Z,99.993896
2022-09-13T01:05:00.182Z,99.993896
2022-09-13T01:06:08.873Z,99.993896
2022-09-13T01:07:17.550Z,99.993896
2022-09-13T01:08:27.261Z,99.993896
2022-09-13T01:09:36.929Z,99.993896
2022-09-13T01:10:44.649Z,99.993896
2022-09-13T01:11:53.346Z,99.993896
2022-09-13T01:13:03.040Z,99.993896
2022-09-13T01:14:12.717Z,99.993896
2022-09-13T01:15:21.384Z,99.993896
2022-09-13T01:16:30.295Z,99.993896
2022-09-13T01:17:39.887Z,99.993896
2022-09-13T01:18:49.611Z,99.993896
2022-09-13T01:19:58.247Z,99.993896
2022-09-13T01:21:07.941Z,99.993896
2022-09-13T01:22:17.802Z,99.993896
2022-09-13T01:23:26.454Z,99.993896
2022-09-13T01:24:35.136Z,99.993896
2022-09-13T01:25:44.847Z,99.993896
2022-09-13T01:26:53.520Z,99.993896
2022-09-13T01:28:02.207Z,99.993896
2022-09-13T01:29:10.922Z,99.993896
2022-09-13T01:30:20.568Z,99.993896
2022-09-13T01:31:30.289Z,99.993896
2022-09-13T01:32:38.961Z,99.993896
2022-09-13T01:33:48.750Z,99.951172
2022-09-13T01:34:57.471Z,99.951172
2022-09-13T01:36:06.032Z,99.993896
2022-09-13T01:37:15.726Z,99.993896
2022-09-13T01:38:22.442Z,99.993896
2022-09-13T01:39:30.159Z,99.951172
2022-09-13T01:40:39.841Z,99.951172
2022-09-13T01:41:48.532Z,99.993896
2022-09-13T01:42:57.206Z,99.993896
2022-09-13T01:44:05.864Z,99.993896
2022-09-13T01:45:14.578Z,99.993896
2022-09-13T01:46:24.257Z,99.993896
2022-09-13T01:47:31.952Z,99.993896
2022-09-13T01:48:39.599Z,99.993896
2022-09-13T01:49:49.285Z,99.993896
2022-09-13T01:50:58.113Z,99.993896
2022-09-13T01:52:06.695Z,99.993896
2022-09-13T01:53:15.358Z,99.993896
2022-09-13T01:54:24.030Z,99.993896
2022-09-13T01:56:00.442Z,99.993896
2022-09-13T01:57:10.164Z,99.993896
2022-09-13T01:58:19.940Z,99.993896
2022-09-13T01:59:29.717Z,99.993896
2022-09-13T02:00:39.516Z,99.993896
2022-09-13T02:01:48.349Z,99.993896
2022-09-13T02:02:58.158Z,99.993896
2022-09-13T02:04:07.906Z,99.993896
2022-09-13T02:05:17.679Z,99.993896
2022-09-13T02:06:26.560Z,99.993896
2022-09-13T02:07:36.372Z,99.993896
2022-09-13T02:08:46.120Z,99.993896
2022-09-13T02:09:54.834Z,99.993896
2022-09-13T02:11:03.572Z,99.993896
2022-09-13T02:12:13.341Z,99.993896
2022-09-13T02:13:22.151Z,99.993896
2022-09-13T02:14:31.909Z,99.993896
2022-09-13T02:15:40.635Z,99.993896
2022-09-13T02:16:49.530Z,99.993896
2022-09-13T02:17:59.326Z,99.993896
2022-09-13T02:19:08.266Z,99.993896
2022-09-13T02:20:16.059Z,99.993896
2022-09-13T02:21:25.816Z,99.993896
2022-09-13T02:22:34.530Z,99.993896
2022-09-13T02:23:43.250Z,99.993896
2022-09-13T02:24:52.152Z,99.993896
2022-09-13T02:26:00.839Z,99.993896
2022-09-13T02:27:09.618Z,99.993896
2022-09-13T02:28:18.402Z,99.993896
2022-09-13T02:29:27.132Z,99.993896
2022-09-13T02:30:36.881Z,99.993896
2022-09-13T02:31:45.650Z,99.993896
2022-09-13T02:32:55.328Z,99.993896
2022-09-13T02:34:04.051Z,99.993896
2022-09-13T02:35:12.829Z,99.993896
2022-09-13T02:36:22.557Z,99.993896
2022-09-13T02:37:30.357Z,99.993896
2022-09-13T02:38:40.148Z,99.993896
2022-09-13T02:39:49.931Z,99.993896
2022-09-13T02:40:59.618Z,99.993896
2022-09-13T02:42:12.405Z,99.993896
2022-09-13T02:43:19.169Z,99.993896
2022-09-13T02:44:28.934Z,99.993896
2022-09-13T02:45:38.697Z,99.993896
2022-09-13T02:46:46.352Z,99.993896
2022-09-13T02:47:55.188Z,99.993896
2022-09-13T02:49:05.006Z,99.993896
2022-09-13T02:50:13.688Z,99.993896
2022-09-13T02:51:22.418Z,99.993896
2022-09-13T02:52:31.157Z,99.993896
2022-09-13T02:53:38.888Z,99.993896
2022-09-13T02:54:48.623Z,99.993896
2022-09-13T02:55:58.339Z,99.993896
2022-09-13T02:57:09.053Z,99.993896
2022-09-13T02:58:19.467Z,99.993896
2022-09-13T02:59:28.552Z,99.993896
2022-09-13T03:00:38.306Z,99.993896
2022-09-13T03:01:48.025Z,99.993896
2022-09-13T03:02:56.732Z,99.993896
2022-09-13T03:04:05.402Z,99.993896
2022-09-13T03:05:14.127Z,99.993896
2022-09-13T03:06:23.851Z,99.993896
2022-09-13T03:07:31.580Z,99.993896
2022-09-13T03:08:39.406Z,99.993896
2022-09-13T03:09:49.128Z,99.993896
2022-09-13T03:10:57.872Z,99.993896
2022-09-13T03:12:07.555Z,99.993896
2022-09-13T03:13:17.283Z,99.993896
2022-09-13T03:14:26.045Z,99.993896
2022-09-13T03:15:35.749Z,99.993896
2022-09-13T03:16:45.641Z,99.993896
2022-09-13T03:17:55.322Z,99.993896
2022-09-13T03:19:04.990Z,99.993896
2022-09-13T03:20:14.807Z,99.993896
2022-09-13T03:21:22.492Z,99.993896
2022-09-13T03:22:31.230Z,99.993896
2022-09-13T03:23:39.914Z,99.993896
2022-09-13T03:24:49.645Z,99.993896
2022-09-13T03:25:58.466Z,99.993896
2022-09-13T03:27:07.169Z,99.993896
2022-09-13T03:28:17.030Z,99.993896
2022-09-13T03:29:26.824Z,99.993896
2022-09-13T03:30:37.573Z,99.993896
2022-09-13T03:31:47.448Z,99.993896
2022-09-13T03:32:56.177Z,99.993896
2022-09-13T03:34:06.005Z,99.993896
2022-09-13T03:35:14.748Z,99.993896
2022-09-13T03:36:23.485Z,99.993896
2022-09-13T03:37:34.670Z,99.993896
2022-09-13T03:38:43.417Z,99.993896
2022-09-13T03:39:52.324Z,99.993896
2022-09-13T03:41:01.103Z,99.993896
2022-09-13T03:42:10.895Z,99.993896
2022-09-13T03:43:20.529Z,99.993896
2022-09-13T03:44:29.296Z,99.993896
2022-09-13T03:45:38.331Z,99.993896
2022-09-13T03:46:47.885Z,99.993896
2022-09-13T03:47:56.624Z,99.993896
2022-09-13T03:49:06.379Z,99.993896
2022-09-13T03:50:16.370Z,99.993896
2022-09-13T03:51:26.167Z,99.993896
2022-09-13T03:52:35.860Z,99.993896
2022-09-13T03:53:43.601Z,99.993896
2022-09-13T03:54:52.354Z,99.993896
2022-09-13T03:56:02.068Z,99.993896
2022-09-13T03:57:11.015Z,99.993896
2022-09-13T03:58:19.872Z,99.993896
2022-09-13T03:59:29.487Z,99.993896
2022-09-13T04:00:39.403Z,99.993896
2022-09-13T04:01:48.196Z,99.993896
2022-09-13T04:02:56.169Z,99.993896
2022-09-13T04:04:05.971Z,99.993896
2022-09-13T04:05:15.737Z,99.993896
2022-09-13T04:06:24.464Z,99.993896
2022-09-13T04:07:33.201Z,99.993896
2022-09-13T04:08:42.999Z,99.993896
2022-09-13T04:09:51.779Z,99.993896
2022-09-13T04:11:01.568Z,99.993896
2022-09-13T04:12:09.565Z,99.993896
2022-09-13T04:13:18.350Z,99.993896
2022-09-13T04:14:28.218Z,99.993896
2022-09-13T04:15:37.949Z,99.993896
2022-09-13T04:16:47.697Z,99.993896
2022-09-13T04:17:57.429Z,99.993896
2022-09-13T04:19:07.344Z,99.993896
2022-09-13T04:20:17.057Z,99.993896
2022-09-13T04:21:25.762Z,99.993896
2022-09-13T04:22:34.561Z,99.993896
2022-09-13T04:23:44.317Z,99.993896
2022-09-13T04:24:53.970Z,99.993896
2022-09-13T04:26:03.710Z,99.993896
2022-09-13T04:27:13.420Z,99.993896
2022-09-13T04:28:23.191Z,99.993896
2022-09-13T04:29:32.947Z,99.993896
2022-09-13T04:30:42.754Z,99.993896
2022-09-13T04:31:51.799Z,99.993896
2022-09-13T04:33:01.504Z,99.993896
2022-09-13T04:34:11.182Z,99.993896
2022-09-13T04:35:20.938Z,99.993896
2022-09-13T04:36:30.648Z,99.993896
2022-09-13T04:37:40.496Z,99.993896
2022-09-13T04:38:50.242Z,99.993896
2022-09-13T04:39:59.004Z,99.993896
2022-09-13T04:41:07.653Z,99.993896
2022-09-13T04:42:17.392Z,99.993896
2022-09-13T04:43:27.162Z,99.993896
2022-09-13T04:44:35.167Z,99.993896
2022-09-13T04:45:44.827Z,99.993896
2022-09-13T04:46:54.511Z,99.993896
2022-09-13T04:48:04.296Z,99.993896
2022-09-13T04:49:13.050Z,99.993896
2022-09-13T04:50:20.770Z,99.993896
2022-09-13T04:51:30.522Z,99.993896
2022-09-13T04:52:39.286Z,99.993896
2022-09-13T04:53:47.982Z,99.993896
2022-09-13T04:54:56.716Z,99.993896
2022-09-13T04:56:06.468Z,99.993896
2022-09-13T04:57:16.159Z,99.993896
2022-09-13T04:58:25.914Z,99.993896
2022-09-13T04:59:35.687Z,99.993896
2022-09-13T05:00:43.683Z,99.993896
2022-09-13T05:01:52.394Z,99.993896
2022-09-13T05:03:02.142Z,99.993896
2022-09-13T05:04:11.893Z,99.993896
2022-09-13T05:05:20.598Z,99.993896
2022-09-13T05:06:31.518Z,99.993896
2022-09-13T05:07:41.302Z,99.993896
2022-09-13T05:08:51.004Z,99.993896
2022-09-13T05:10:00.765Z,99.993896
2022-09-13T05:11:09.485Z,99.993896
2022-09-13T05:12:19.373Z,99.993896
2022-09-13T05:13:28.053Z,99.993896
2022-09-13T05:14:37.753Z,99.993896
2022-09-13T05:15:46.641Z,99.993896
2022-09-13T05:16:56.298Z,99.993896
2022-09-13T05:18:06.088Z,99.993896
2022-09-13T05:19:15.814Z,99.993896
2022-09-13T05:20:24.520Z,99.993896
2022-09-13T05:21:34.266Z,99.993896
2022-09-13T05:22:43.015Z,99.993896
2022-09-13T05:23:51.786Z,99.993896
2022-09-13T05:25:01.548Z,99.993896
2022-09-13T05:26:10.329Z,99.993896
2022-09-13T05:27:20.044Z,99.993896
2022-09-13T05:28:28.775Z,99.993896
2022-09-13T05:29:38.528Z,99.993896
2022-09-13T05:30:48.290Z,99.993896
2022-09-13T05:31:57.027Z,99.993896
2022-09-13T05:33:06.803Z,99.993896
2022-09-13T05:34:15.521Z,99.993896
2022-09-13T05:35:24.274Z,99.993896
2022-09-13T05:36:34.019Z,99.993896
2022-09-13T05:37:42.812Z,99.993896
2022-09-13T05:39:01.787Z,99.993896
2022-09-13T05:40:14.982Z,99.993896
2022-09-13T05:41:13.038Z,99.993896
2022-09-13T05:42:22.850Z,99.993896
2022-09-13T05:43:32.639Z,99.993896
2022-09-13T05:44:42.406Z,99.993896
2022-09-13T05:45:52.206Z,99.993896
2022-09-13T05:47:01.042Z,99.993896
2022-09-13T05:48:10.717Z,99.993896
2022-09-13T05:49:20.437Z,99.993896
2022-09-13T05:50:56.643Z,99.993896
2022-09-13T05:51:39.869Z,99.993896
2022-09-13T05:52:49.654Z,99.993896
2022-09-13T05:53:59.616Z,99.993896
2022-09-13T05:55:09.399Z,99.993896
2022-09-13T05:56:18.202Z,99.993896
2022-09-13T05:57:25.924Z,99.993896
2022-09-13T05:58:35.680Z,99.993896
2022-09-13T05:59:45.427Z,99.993896
2022-09-13T06:00:54.132Z,99.993896
2022-09-13T06:02:02.943Z,99.993896
2022-09-13T06:03:11.582Z,99.993896
2022-09-13T06:04:21.418Z,99.908447
2022-09-13T06:05:31.826Z,99.908447
2022-09-13T06:06:38.938Z,99.908447
2022-09-13T06:07:48.688Z,99.908447
2022-09-13T06:08:58.425Z,99.804688
2022-09-13T06:10:08.817Z,99.755859
2022-09-13T06:11:18.161Z,99.658203
2022-09-13T06:12:27.925Z,99.450684
2022-09-13T06:13:37.663Z,98.999023
2022-09-13T06:14:46.423Z,98.284912
2022-09-13T06:15:55.271Z,97.2229
2022-09-13T06:17:05.156Z,96.66748
2022-09-13T06:18:14.990Z,96.258545
2022-09-13T06:19:23.723Z,95.806885
2022-09-13T06:20:32.431Z,95.092773
2022-09-13T06:21:41.188Z,94.543457
2022-09-13T06:22:50.872Z,94.342041
2022-09-13T06:24:00.617Z,94.342041
2022-09-13T06:25:09.335Z,94.293213
2022-09-13T06:26:19.000Z,93.585205
2022-09-13T06:27:26.790Z,92.419434
2022-09-13T06:28:43.874Z,91.912842
2022-09-13T06:29:46.826Z,92.071533
2022-09-13T06:30:56.700Z,91.772461
2022-09-13T06:32:05.368Z,90.753174
2022-09-13T06:33:15.181Z,90.814209
2022-09-13T06:34:26.940Z,90.405273
2022-09-13T06:35:34.650Z,90.771484
2022-09-13T06:36:43.392Z,89.959717
2022-09-13T06:37:52.075Z,90.020752
2022-09-13T06:39:01.955Z,90.020752
2022-09-13T06:40:10.676Z,89.007568
2022-09-13T06:41:20.387Z,88.153076
2022-09-13T06:42:30.083Z,88.458252
2022-09-13T06:43:38.788Z,86.49292
2022-09-13T06:44:48.490Z,86.999512
2022-09-13T06:45:58.220Z,87.359619
2022-09-13T06:47:05.920Z,86.14502
2022-09-13T06:48:15.667Z,85.05249
2022-09-13T06:49:25.408Z,85.05249
2022-09-13T06:50:34.262Z,84.509277
2022-09-13T06:51:43.974Z,83.599854
2022-09-13T06:52:52.718Z,83.496094
2022-09-13T06:54:02.479Z,83.294678
2022-09-13T06:55:12.629Z,83.294678
2022-09-13T06:56:19.909Z,84.063721
2022-09-13T06:57:27.638Z,84.228516
2022-09-13T06:58:37.455Z,84.289551
2022-09-13T06:59:47.048Z,81.92749
2022-09-13T07:00:56.782Z,81.323242
2022-09-13T07:02:06.543Z,80.780029
2022-09-13T07:03:16.283Z,79.931641
2022-09-13T07:04:25.106Z,79.290771
2022-09-13T07:05:34.796Z,78.448486
2022-09-13T07:06:44.594Z,78.308105
2022-09-13T07:07:54.436Z,76.361084
2022-09-13T07:09:04.191Z,75.421143
2022-09-13T07:10:12.921Z,74.377441
2022-09-13T07:11:22.660Z,73.272705
2022-09-13T07:12:31.378Z,72.937012
2022-09-13T07:13:40.173Z,73.840332
2022-09-13T07:14:48.916Z,73.4375
2022-09-13T07:15:56.837Z,74.145508
2022-09-13T07:17:06.672Z,73.339844
2022-09-13T07:18:16.558Z,72.937012
2022-09-13T07:19:26.479Z,73.101807
2022-09-13T07:20:36.330Z,73.468018
2022-09-13T07:21:46.177Z,72.467041
2022-09-13T07:22:56.039Z,73.168945
2022-09-13T07:24:05.653Z,73.168945
2022-09-13T07:25:14.361Z,71.99707
2022-09-13T07:26:23.155Z,71.99707
2022-09-13T07:27:32.851Z,70.928955
2022-09-13T07:28:42.585Z,71.929932
2022-09-13T07:29:51.282Z,73.034668
2022-09-13T07:31:00.068Z,71.026611
2022-09-13T07:32:09.757Z,70.562744
2022-09-13T07:33:19.433Z,72.167969
2022-09-13T07:34:28.109Z,71.09375
2022-09-13T07:35:36.767Z,71.563721
2022-09-13T07:36:46.520Z,70.562744
2022-09-13T07:37:56.294Z,70.928955
2022-09-13T07:39:06.024Z,71.331787
2022-09-13T07:40:16.816Z,69.622803
2022-09-13T07:41:26.446Z,70.324707
2022-09-13T07:42:36.179Z,71.392822
2022-09-13T07:43:44.896Z,70.056152
2022-09-13T07:44:54.658Z,69.189453
2022-09-13T07:46:04.494Z,67.425537
2022-09-13T07:47:14.156Z,65.289307
2022-09-13T07:48:23.927Z,66.094971
2022-09-13T07:49:33.574Z,66.394043
2022-09-13T07:50:43.310Z,65.325928
2022-09-13T07:51:52.991Z,65.753174
2022-09-13T07:53:01.744Z,66.589355
2022-09-13T07:54:10.524Z,67.62085
2022-09-13T07:55:20.230Z,68.188477
2022-09-13T07:56:29.005Z,66.424561
2022-09-13T07:57:38.807Z,66.192627
2022-09-13T07:58:48.626Z,66.192627
2022-09-13T07:59:58.288Z,66.790771
2022-09-13T08:01:08.093Z,66.094971
2022-09-13T08:02:16.843Z,66.192627
2022-09-13T08:03:25.523Z,66.790771
2022-09-13T08:04:36.481Z,64.831543
2022-09-13T08:05:45.081Z,64.300537
2022-09-13T08:06:54.866Z,63.171387
2022-09-13T08:08:04.561Z,63.94043
2022-09-13T08:09:14.518Z,63.208008
2022-09-13T08:10:24.134Z,61.38916
2022-09-13T08:11:33.077Z,61.38916
2022-09-13T08:12:42.786Z,60.760498
2022-09-13T08:13:52.503Z,61.254883
2022-09-13T08:15:02.236Z,61.05957
2022-09-13T08:16:12.020Z,62.322998
2022-09-13T08:17:21.820Z,60.430908
2022-09-13T08:18:30.495Z,59.832764
2022-09-13T08:19:40.232Z,59.692383
2022-09-13T08:20:47.930Z,61.090088
2022-09-13T08:21:56.620Z,59.619141
2022-09-13T08:23:06.384Z,59.619141
2022-09-13T08:24:15.132Z,59.423828
2022-09-13T08:25:23.848Z,59.820557
2022-09-13T08:26:33.564Z,60.516357
2022-09-13T08:27:42.303Z,59.521484
2022-09-13T08:28:52.087Z,61.315918
2022-09-13T08:30:01.829Z,60.388184
2022-09-13T08:31:10.950Z,59.790039
2022-09-13T08:32:20.563Z,60.559082
2022-09-13T08:33:30.332Z,59.960938
2022-09-13T08:34:38.045Z,59.16748
2022-09-13T08:35:46.783Z,59.136963
2022-09-13T08:36:55.478Z,59.234619
2022-09-13T08:38:05.175Z,58.538818
2022-09-13T08:39:14.864Z,58.740234
2022-09-13T08:40:23.659Z,57.940674
2022-09-13T08:41:33.400Z,58.538818
2022-09-13T08:42:43.075Z,59.405518
2022-09-13T08:43:52.801Z,58.410645
2022-09-13T08:45:01.501Z,57.91626
2022-09-13T08:46:11.627Z,57.745361
2022-09-13T08:47:21.348Z,58.837891
2022-09-13T08:48:29.040Z,59.039307
2022-09-13T08:49:37.784Z,57.641602
2022-09-13T08:50:47.507Z,57.672119
2022-09-13T08:51:56.366Z,58.197021
2022-09-13T08:53:05.037Z,58.666992
2022-09-13T08:54:13.772Z,58.398438
2022-09-13T08:55:23.535Z,59.594727
2022-09-13T08:56:32.288Z,60.36377
2022-09-13T08:57:42.341Z,59.136963
2022-09-13T08:58:51.895Z,58.441162
2022-09-13T09:00:00.695Z,59.106445
2022-09-13T09:01:08.577Z,59.576416
2022-09-13T09:02:18.268Z,58.282471
2022-09-13T09:03:26.998Z,58.453369
2022-09-13T09:04:35.918Z,57.659912
2022-09-13T09:05:44.686Z,58.1604
2022-09-13T09:06:57.878Z,57.061768
2022-09-13T09:08:04.457Z,57.061768
2022-09-13T09:09:13.423Z,58.032227
2022-09-13T09:10:22.301Z,57.60498
2022-09-13T09:11:32.242Z,56.610107
2022-09-13T09:12:42.130Z,57.208252
2022-09-13T09:13:51.102Z,56.835938
2022-09-13T09:15:00.966Z,57.476807
2022-09-13T09:16:09.778Z,56.262207
2022-09-13T09:17:19.404Z,56.555176
2022-09-13T09:18:29.183Z,55.987549
2022-09-13T09:19:36.853Z,56.512451
2022-09-13T09:20:46.730Z,58.752441
2022-09-13T09:21:56.496Z,58.557129
2022-09-13T09:23:06.232Z,58.624268
2022-09-13T09:24:14.992Z,58.966064
2022-09-13T09:25:27.452Z,58.813477
2022-09-13T09:26:37.383Z,56.005859
2022-09-13T09:27:46.160Z,54.962158
2022-09-13T09:28:56.097Z,54.046631
2022-09-13T09:30:05.818Z,54.217529
2022-09-13T09:31:15.641Z,52.734375
2022-09-13T09:32:24.461Z,52.563477
2022-09-13T09:33:33.173Z,53.527832
2022-09-13T09:34:42.976Z,53.22876
2022-09-13T09:35:52.784Z,54.095459
2022-09-13T09:37:02.542Z,54.785156
2022-09-13T09:38:11.362Z,53.497314
2022-09-13T09:39:21.206Z,53.00293
2022-09-13T09:40:31.748Z,53.796387
2022-09-13T09:41:40.845Z,53.4729
2022-09-13T09:42:48.539Z,54.858398
2022-09-13T09:43:57.354Z,52.459717
2022-09-13T09:45:07.124Z,53.942871
2022-09-13T09:46:16.923Z,53.918457
2022-09-13T09:47:29.381Z,53.198242
2022-09-13T09:48:36.523Z,51.940918
2022-09-13T09:49:46.319Z,51.446533
2022-09-13T09:50:55.051Z,51.446533
2022-09-13T09:52:04.809Z,52.337646
2022-09-13T09:53:14.549Z,51.544189
2022-09-13T09:54:23.315Z,51.940918
2022-09-13T09:55:32.105Z,51.226807
2022-09-13T09:56:41.793Z,53.594971
2022-09-13T09:57:50.481Z,52.087402
2022-09-13T09:59:00.312Z,51.098633
2022-09-13T10:00:09.146Z,50.90332
2022-09-13T10:01:19.028Z,50.708008
2022-09-13T10:02:28.829Z,50.65918
2022-09-13T10:03:37.515Z,52.191162
2022-09-13T10:04:47.411Z,53.894043
2022-09-13T10:05:56.150Z,53.204346
2022-09-13T10:07:05.020Z,53.570557
2022-09-13T10:08:15.808Z,52.856445
2022-09-13T10:09:23.633Z,52.435303
2022-09-13T10:10:32.433Z,51.226807
2022-09-13T10:11:42.206Z,50.43335
2022-09-13T10:12:51.988Z,50.805664
2022-09-13T10:14:00.765Z,51.098633
2022-09-13T10:15:09.585Z,50.90332
2022-09-13T10:16:19.378Z,51.12915
2022-09-13T10:17:29.157Z,51.275635
2022-09-13T10:18:44.271Z,51.647949
2022-09-13T10:19:47.054Z,53.552246
2022-09-13T10:20:56.748Z,53.253174
2022-09-13T10:22:05.520Z,52.142334
2022-09-13T10:23:14.322Z,53.649902
2022-09-13T10:24:24.110Z,53.674316
2022-09-13T10:25:33.835Z,54.046631
2022-09-13T10:26:46.549Z,53.820801
2022-09-13T10:27:55.275Z,52.832031
2022-09-13T10:29:02.961Z,51.422119
2022-09-13T10:30:12.889Z,52.905273
2022-09-13T10:31:21.650Z,51.989746
2022-09-13T10:32:31.345Z,53.051758
2022-09-13T10:33:40.243Z,51.818848
2022-09-13T10:34:49.933Z,51.794434
2022-09-13T10:35:59.791Z,50.78125
2022-09-13T10:37:07.455Z,50.976562
2022-09-13T10:38:16.445Z,49.029541
2022-09-13T10:39:26.387Z,49.102783
2022-09-13T10:40:36.121Z,48.687744
2022-09-13T10:41:44.906Z,49.67041
2022-09-13T10:42:54.704Z,48.980713
2022-09-13T10:44:07.778Z,48.632812
2022-09-13T10:45:15.349Z,49.053955
2022-09-13T10:46:23.267Z,49.963379
2022-09-13T10:47:32.168Z,50.634766
2022-09-13T10:48:41.976Z,49.224854
2022-09-13T10:49:50.855Z,50.488281
2022-09-13T10:51:01.078Z,49.89624
2022-09-13T10:52:14.350Z,49.401855
2022-09-13T10:53:20.022Z,49.224854
2022-09-13T10:54:28.792Z,48.907471
2022-09-13T10:55:39.759Z,49.993896
2022-09-13T10:56:49.521Z,49.279785
2022-09-13T10:57:59.334Z,50.115967
2022-09-13T10:59:08.111Z,48.614502
2022-09-13T11:00:18.032Z,48.54126
2022-09-13T11:01:28.039Z,47.723389
2022-09-13T11:02:38.644Z,49.993896
2022-09-13T11:03:47.411Z,49.127197
2022-09-13T11:04:57.167Z,51.202393
2022-09-13T11:06:06.901Z,51.721191
2022-09-13T11:07:15.666Z,49.938965
2022-09-13T11:08:23.357Z,49.053955
2022-09-13T11:09:33.109Z,49.841309
2022-09-13T11:10:42.947Z,49.54834
2022-09-13T11:11:51.636Z,49.841309
2022-09-13T11:13:01.475Z,49.224854
2022-09-13T11:14:11.301Z,50.091553
2022-09-13T11:15:21.023Z,49.450684
2022-09-13T11:16:28.827Z,48.937988
2022-09-13T11:17:40.049Z,46.966553
2022-09-13T11:18:50.044Z,47.680664
2022-09-13T11:20:00.803Z,48.120117
2022-09-13T11:21:10.730Z,48.7854
2022-09-13T11:22:19.597Z,48.370361
2022-09-13T11:23:28.361Z,47.875977
2022-09-13T11:24:38.199Z,48.54126
2022-09-13T11:25:47.893Z,46.19751
2022-09-13T11:26:55.613Z,46.691895
2022-09-13T11:28:05.355Z,46.990967
2022-09-13T11:29:15.141Z,47.698975
2022-09-13T11:30:29.306Z,46.44165
2022-09-13T11:31:35.726Z,47.570801
2022-09-13T11:32:45.469Z,47.772217
2022-09-13T11:33:55.192Z,48.461914
2022-09-13T11:35:07.927Z,48.779297
2022-09-13T11:36:16.667Z,48.681641
2022-09-13T11:37:26.403Z,48.486328
2022-09-13T11:38:35.278Z,48.364258
2022-09-13T11:39:43.995Z,50.042725
2022-09-13T11:40:52.710Z,48.461914
2022-09-13T11:42:02.417Z,49.621582
2022-09-13T11:43:12.118Z,48.834229
2022-09-13T11:44:19.878Z,47.967529
2022-09-13T11:45:29.775Z,49.053955
2022-09-13T11:46:39.463Z,48.065186
2022-09-13T11:47:48.425Z,48.876953
2022-09-13T11:48:58.124Z,49.298096
2022-09-13T11:50:06.934Z,49.987793
2022-09-13T11:51:15.715Z,50.805664
2022-09-13T11:52:25.475Z,50.311279
2022-09-13T11:53:34.209Z,50.408936
2022-09-13T11:54:42.913Z,51.202393
2022-09-13T11:55:51.675Z,50.213623
2022-09-13T11:57:01.480Z,50.213623
2022-09-13T11:58:11.269Z,50.610352
2022-09-13T11:59:21.032Z,50.311279
2022-09-13T12:00:29.864Z,49.987793
2022-09-13T12:01:39.665Z,50.506592
2022-09-13T12:02:48.536Z,50.384521
2022-09-13T12:03:58.223Z,49.395752
2022-09-13T12:05:24.005Z,49.420166
2022-09-13T12:06:18.642Z,49.841309
2022-09-13T12:07:26.485Z,51.593018
2022-09-13T12:08:36.281Z,50.610352
2022-09-13T12:09:46.062Z,50.408936
2022-09-13T12:10:54.795Z,50.286865
2022-09-13T12:12:06.447Z,49.102783
2022-09-13T12:13:15.437Z,49.395752
2022-09-13T12:14:25.305Z,51.153564
2022-09-13T12:15:33.041Z,50.360107
2022-09-13T12:16:41.939Z,49.67041
2022-09-13T12:17:51.587Z,49.053955
2022-09-13T12:19:00.396Z,49.743652
2022-09-13T12:20:10.306Z,47.058105
2022-09-13T12:21:19.922Z,48.931885
2022-09-13T12:22:30.948Z,48.736572
2022-09-13T12:23:39.475Z,49.200439
2022-09-13T12:24:48.151Z,48.510742
2022-09-13T12:25:57.070Z,47.601318
2022-09-13T12:27:06.860Z,48.638916
2022-09-13T12:28:16.831Z,48.126221
2022-09-13T12:29:25.533Z,47.485352
2022-09-13T12:30:35.274Z,46.826172
2022-09-13T12:31:44.055Z,45.507812
2022-09-13T12:32:58.207Z,44.506836
2022-09-13T12:34:06.291Z,43.353271
2022-09-13T12:35:15.496Z,44.116211
2022-09-13T12:36:24.785Z,43.426514
2022-09-13T12:37:34.578Z,44.976807
2022-09-13T12:38:44.409Z,44.366455
2022-09-13T12:39:54.119Z,42.950439
2022-09-13T12:41:02.849Z,42.950439
2022-09-13T12:43:29.538Z,41.033936
2022-09-13T12:44:37.293Z,42.010498
2022-09-13T12:45:47.044Z,40.661621
2022-09-13T12:46:55.745Z,42.053223
2022-09-13T12:48:05.471Z,42.736816
2022-09-13T12:49:14.284Z,42.071533
2022-09-13T12:50:53.579Z,42.150879
2022-09-13T12:51:35.345Z,41.192627
2022-09-13T12:52:44.033Z,42.950439
2022-09-13T12:53:53.801Z,42.346191
2022-09-13T12:55:01.528Z,40.856934
2022-09-13T12:56:11.328Z,40.679932
2022-09-13T12:57:21.215Z,42.907715
2022-09-13T12:58:31.064Z,41.345215
2022-09-13T12:59:40.813Z,41.149902
2022-09-13T13:00:50.837Z,41.265869
2022-09-13T13:02:00.341Z,40.95459
2022-09-13T13:03:10.023Z,40.057373
2022-09-13T13:04:18.935Z,39.648438
2022-09-13T13:05:28.789Z,39.373779
2022-09-13T13:06:38.536Z,39.215088
2022-09-13T13:07:47.278Z,40.093994
2022-09-13T13:08:56.961Z,39.703369
2022-09-13T13:10:05.723Z,40.014648
2022-09-13T13:11:14.447Z,39.837646
2022-09-13T13:12:24.167Z,40.405273
2022-09-13T13:13:32.938Z,40.014648